Time;durP1;ratioP1;P1;durP2;ratioP2;P2;SDS_P1;SDS_P2;PMS_P1;PMS_P2;Temp;Humidity;BMP_temperature;BMP_pressure;BME280_temperature;BME280_humidity;BME280_pressure;Samples;Min_cycle;Max_cycle;Signal;HPM_P1;HPM_P2
2023/05/12 00:01:13;;;;;;;0.73;0.73;;;11.10;99.90;;;;;;5054736;28;20041;-86
2023/05/12 00:03:39;;;;;;;1.45;1.00;;;11.10;99.90;;;;;;5051093;28;20048;-85
2023/05/12 00:06:05;;;;;;;1.20;0.85;;;11.10;99.90;;;;;;5035140;28;20041;-85
2023/05/12 00:08:31;;;;;;;1.15;0.90;;;11.10;99.90;;;;;;5040863;28;20131;-85
2023/05/12 00:10:57;;;;;;;0.40;0.40;;;11.10;99.90;;;;;;5054639;28;20052;-86
2023/05/12 00:13:23;;;;;;;5.85;1.77;;;11.90;99.90;;;;;;5052821;28;20044;-86
2023/05/12 00:15:50;;;;;;;3.05;1.35;;;11.10;99.90;;;;;;5053005;28;20041;-86
2023/05/12 00:18:16;;;;;;;3.38;2.13;;;11.40;99.90;;;;;;5051216;28;20041;-86
2023/05/12 00:20:41;;;;;;;2.92;1.50;;;11.10;99.90;;;;;;5034661;28;20042;-86
2023/05/12 00:23:07;;;;;;;3.58;1.83;;;11.10;99.90;;;;;;5046866;28;20061;-86
2023/05/12 00:25:33;;;;;;;2.35;1.45;;;11.10;99.90;;;;;;5053768;28;20482;-87
2023/05/12 00:27:59;;;;;;;1.45;1.10;;;11.10;99.90;;;;;;5052163;28;20113;-86
2023/05/12 00:30:24;;;;;;;3.30;1.75;;;11.10;99.90;;;;;;5042833;28;20044;-85
2023/05/12 00:32:50;;;;;;;13.93;2.13;;;12.10;99.90;;;;;;5045035;28;20068;-85
2023/05/12 00:35:16;;;;;;;11.40;4.00;;;11.70;99.90;;;;;;5057335;28;20213;-84
2023/05/12 00:37:42;;;;;;;5.40;3.22;;;11.20;99.90;;;;;;5064536;28;20057;-84
2023/05/12 00:40:08;;;;;;;4.47;1.40;;;11.20;99.90;;;;;;5064990;28;20072;-85
2023/05/12 00:42:35;;;;;;;4.70;1.88;;;11.20;99.90;;;;;;5065750;28;20052;-86
2023/05/12 00:45:01;;;;;;;2.45;1.65;;;11.20;99.90;;;;;;5055876;28;20075;-86
2023/05/12 00:47:27;;;;;;;2.15;1.92;;;12.20;99.90;;;;;;5039497;28;20045;-86
2023/05/12 00:49:53;;;;;;;2.95;2.05;;;11.30;99.90;;;;;;5032457;28;20053;-85
2023/05/12 00:52:19;;;;;;;2.75;1.73;;;12.10;99.90;;;;;;5033612;28;20064;-85
2023/05/12 00:54:47;;;;;;;1.90;1.05;;;11.30;99.90;;;;;;5032853;28;20076;-85
2023/05/12 00:57:13;;;;;;;1.65;1.55;;;11.30;99.90;;;;;;5033103;28;20415;-85
2023/05/12 00:59:38;;;;;;;1.92;1.73;;;11.20;99.90;;;;;;5040499;28;20049;-85
2023/05/12 01:02:06;;;;;;;4.15;2.22;;;11.30;99.90;;;;;;5040159;28;20106;-85
2023/05/12 01:04:32;;;;;;;3.42;2.92;;;11.30;99.90;;;;;;5052390;28;20114;-84
2023/05/12 01:07:16;;;;;;;5.28;2.13;;;11.30;99.90;;;;;;5053038;28;20041;-86
2023/05/12 01:09:42;;;;;;;2.28;1.58;;;11.30;99.90;;;;;;5042956;28;20092;-85
2023/05/12 01:12:08;;;;;;;3.10;1.40;;;11.30;99.90;;;;;;5054146;28;20515;-85
2023/05/12 01:14:34;;;;;;;3.53;2.58;;;11.40;99.90;;;;;;5052378;28;20044;-85
2023/05/12 01:17:06;;;;;;;7.07;3.80;;;11.40;99.90;;;;;;5052519;28;20537;-85
2023/05/12 01:19:42;;;;;;;2.72;2.10;;;11.40;99.90;;;;;;5052693;28;20060;-85
2023/05/12 01:22:09;;;;;;;2.50;1.75;;;11.40;99.90;;;;;;5053466;28;20049;-85
2023/05/12 01:24:48;;;;;;;5.70;2.65;;;11.40;99.90;;;;;;5031374;28;20054;-85
2023/05/12 01:27:16;;;;;;;3.92;2.22;;;11.40;99.90;;;;;;5032363;28;20045;-85
2023/05/12 01:29:43;;;;;;;4.53;3.22;;;11.40;99.90;;;;;;5032548;28;20087;-85
2023/05/12 01:32:09;;;;;;;2.55;1.92;;;11.40;99.90;;;;;;5032385;28;20050;-85
2023/05/12 01:34:35;;;;;;;2.60;1.70;;;11.50;99.90;;;;;;5033750;28;20040;-85
2023/05/12 01:37:01;;;;;;;28.70;4.43;;;11.50;99.90;;;;;;5051761;28;20049;-86
2023/05/12 01:39:27;;;;;;;2.50;1.55;;;11.50;99.90;;;;;;5053598;28;20047;-86
2023/05/12 01:41:52;;;;;;;3.90;2.22;;;11.50;99.90;;;;;;5053610;28;20352;-85
2023/05/12 01:44:19;;;;;;;0.88;0.80;;;11.50;99.90;;;;;;5052315;28;20061;-85
2023/05/12 01:46:44;;;;;;;0.88;0.60;;;11.50;99.90;;;;;;5052970;28;20120;-84
2023/05/12 01:49:10;;;;;;;5.50;3.20;;;11.50;99.90;;;;;;5053157;28;20080;-84
2023/05/12 01:51:36;;;;;;;1.35;1.25;;;11.50;99.90;;;;;;5053447;28;20045;-84
2023/05/12 01:54:01;;;;;;;1.85;1.75;;;11.50;99.90;;;;;;5052448;28;20045;-85
2023/05/12 01:56:28;;;;;;;3.40;1.88;;;11.50;99.90;;;;;;5051942;28;20414;-85
2023/05/12 01:58:53;;;;;;;1.65;1.33;;;11.50;99.90;;;;;;5051603;28;20111;-85
2023/05/12 02:01:19;;;;;;;5.38;2.10;;;11.50;99.90;;;;;;5052602;28;20453;-85
2023/05/12 02:03:44;;;;;;;1.67;1.10;;;11.50;99.90;;;;;;5052621;28;20675;-84
2023/05/12 02:06:10;;;;;;;8.05;1.50;;;11.50;99.90;;;;;;5037136;28;20045;-85
2023/05/12 02:08:35;;;;;;;11.63;1.48;;;11.50;99.90;;;;;;5032867;28;20476;-85
2023/05/12 02:11:08;;;;;;;3.50;1.48;;;12.00;99.90;;;;;;5040754;28;20045;-85
2023/05/12 02:13:34;;;;;;;3.35;1.98;;;11.50;99.90;;;;;;5043279;28;20049;-85
2023/05/12 02:16:00;;;;;;;3.40;2.03;;;11.50;99.90;;;;;;5032923;28;20053;-85
2023/05/12 02:18:26;;;;;;;1.15;1.05;;;11.50;99.90;;;;;;5032666;28;20075;-84
2023/05/12 02:20:52;;;;;;;3.63;2.08;;;11.50;99.90;;;;;;5040314;28;20060;-85
2023/05/12 02:23:18;;;;;;;2.88;2.30;;;12.50;99.90;;;;;;5049550;28;20079;-86
2023/05/12 02:25:44;;;;;;;1.52;1.42;;;11.50;99.90;;;;;;5052162;28;20148;-85
2023/05/12 02:28:10;;;;;;;8.15;3.78;;;11.50;99.90;;;;;;5052939;28;20051;-85
2023/05/12 02:30:37;;;;;;;3.70;2.00;;;12.10;99.90;;;;;;5051766;28;20048;-85
2023/05/12 02:33:04;;;;;;;3.15;2.05;;;11.50;99.90;;;;;;5033202;28;20049;-85
2023/05/12 02:35:30;;;;;;;3.22;1.98;;;11.50;99.90;;;;;;5052398;28;20051;-86
2023/05/12 02:37:56;;;;;;;2.55;2.25;;;11.50;99.90;;;;;;5049607;28;20037;-85
2023/05/12 02:40:22;;;;;;;3.28;1.38;;;12.60;99.90;;;;;;5032174;28;20049;-84
2023/05/12 02:42:48;;;;;;;2.45;1.60;;;11.50;99.90;;;;;;5034113;28;20073;-84
2023/05/12 02:45:14;;;;;;;6.60;3.42;;;11.40;99.90;;;;;;5034934;28;20064;-84
2023/05/12 02:47:39;;;;;;;14.30;2.92;;;11.50;99.90;;;;;;5034487;28;20047;-85
2023/05/12 02:50:06;;;;;;;1.85;1.40;;;11.50;99.90;;;;;;5034015;28;20050;-85
2023/05/12 02:52:31;;;;;;;4.90;2.63;;;11.50;99.90;;;;;;5052720;28;20102;-85
2023/05/12 02:54:57;;;;;;;2.22;1.83;;;11.50;99.90;;;;;;5052269;28;20049;-85
2023/05/12 02:57:24;;;;;;;2.10;1.63;;;11.50;99.90;;;;;;5051960;28;20045;-86
2023/05/12 02:59:50;;;;;;;4.13;2.35;;;11.50;99.90;;;;;;5053911;28;20037;-85
2023/05/12 03:02:16;;;;;;;1.35;1.25;;;11.50;99.90;;;;;;5035930;28;20219;-85
2023/05/12 03:04:41;;;;;;;5.07;1.60;;;11.50;99.90;;;;;;5036631;28;20045;-85
2023/05/12 03:07:08;;;;;;;5.15;1.58;;;11.50;99.90;;;;;;5036998;28;20619;-85
2023/05/12 03:09:34;;;;;;;2.40;1.88;;;11.50;99.90;;;;;;5037561;28;20100;-86
2023/05/12 03:11:59;;;;;;;2.35;1.67;;;11.90;99.90;;;;;;5036802;28;20547;-85
2023/05/12 03:14:27;;;;;;;10.93;4.05;;;11.50;99.90;;;;;;5038027;28;20072;-85
2023/05/12 03:16:53;;;;;;;4.25;3.10;;;11.50;99.90;;;;;;5036575;28;20060;-85
2023/05/12 03:19:18;;;;;;;4.47;2.75;;;11.50;99.90;;;;;;5038931;28;20500;-85
2023/05/12 03:21:44;;;;;;;5.55;3.05;;;11.40;99.90;;;;;;5050205;28;20072;-85
2023/05/12 03:24:09;;;;;;;7.75;3.55;;;11.40;99.90;;;;;;5057411;28;20041;-85
2023/05/12 03:26:35;;;;;;;3.05;2.28;;;11.40;99.90;;;;;;5059849;28;20094;-84
2023/05/12 03:29:01;;;;;;;6.13;2.00;;;11.40;99.90;;;;;;5059926;28;20511;-83
2023/05/12 03:31:26;;;;;;;4.25;1.48;;;11.40;99.90;;;;;;5049141;28;20045;-85
2023/05/12 03:33:52;;;;;;;11.35;3.65;;;11.40;99.90;;;;;;5040613;28;20103;-85
2023/05/12 03:36:18;;;;;;;7.50;3.33;;;11.40;99.90;;;;;;5058709;28;20471;-85
2023/05/12 03:38:43;;;;;;;4.25;2.42;;;11.40;99.90;;;;;;5059103;28;20029;-85
2023/05/12 03:41:09;;;;;;;3.78;3.33;;;11.40;99.90;;;;;;5059448;28;20056;-85
2023/05/12 03:43:35;;;;;;;1.83;1.70;;;11.40;99.90;;;;;;5048062;28;20369;-85
2023/05/12 03:46:01;;;;;;;2.40;1.73;;;11.40;99.90;;;;;;5043972;28;20057;-85
2023/05/12 03:48:26;;;;;;;3.28;1.38;;;11.50;99.90;;;;;;5038600;28;20379;-84
2023/05/12 03:50:52;;;;;;;2.65;1.95;;;11.70;99.90;;;;;;5039035;28;20037;-85
2023/05/12 03:53:18;;;;;;;2.70;2.40;;;12.60;99.90;;;;;;5045522;28;20048;-84
2023/05/12 03:55:44;;;;;;;2.42;1.65;;;11.40;99.90;;;;;;5054658;28;20061;-84
2023/05/12 03:58:09;;;;;;;13.27;3.08;;;11.50;99.90;;;;;;5050018;28;20076;-84
2023/05/12 04:00:35;;;;;;;2.70;2.47;;;11.50;99.90;;;;;;5048914;28;20045;-84
2023/05/12 04:03:00;;;;;;;1.58;1.13;;;11.50;99.90;;;;;;5047214;28;20053;-84
2023/05/12 04:05:26;;;;;;;8.32;2.33;;;11.50;99.90;;;;;;5048804;28;20041;-85
2023/05/12 04:07:52;;;;;;;3.25;2.42;;;11.50;99.90;;;;;;5038650;28;20428;-85
2023/05/12 04:10:17;;;;;;;1.33;1.15;;;11.50;99.90;;;;;;5038673;28;20064;-84
2023/05/12 04:12:43;;;;;;;3.78;2.38;;;11.60;99.90;;;;;;5039395;28;20114;-84
2023/05/12 04:15:09;;;;;;;3.30;2.55;;;12.50;99.90;;;;;;5039202;28;20048;-85
2023/05/12 04:17:35;;;;;;;1.58;1.48;;;11.60;99.90;;;;;;5038695;28;20049;-85
2023/05/12 04:20:00;;;;;;;2.60;1.92;;;11.60;99.90;;;;;;5040012;28;20092;-84
2023/05/12 04:22:26;;;;;;;1.30;1.20;;;12.60;99.90;;;;;;5039124;28;20472;-85
2023/05/12 04:24:52;;;;;;;2.08;1.48;;;11.70;99.90;;;;;;5044926;28;20064;-85
2023/05/12 04:27:17;;;;;;;3.95;2.50;;;11.70;99.90;;;;;;5058819;28;20041;-85
2023/05/12 04:29:43;;;;;;;2.75;1.77;;;11.70;99.90;;;;;;5058323;28;20392;-85
2023/05/12 04:32:08;;;;;;;2.78;1.48;;;11.70;99.90;;;;;;5052661;28;20128;-85
2023/05/12 04:34:34;;;;;;;1.33;1.25;;;12.70;99.90;;;;;;5051388;28;20087;-85
2023/05/12 04:37:00;;;;;;;1.35;1.13;;;13.00;99.90;;;;;;5038027;28;20109;-84
2023/05/12 04:39:27;;;;;;;9.20;2.33;;;11.70;99.90;;;;;;5037590;28;20041;-84
2023/05/12 04:41:52;;;;;;;4.38;2.40;;;11.80;99.90;;;;;;5039387;28;20045;-84
2023/05/12 04:44:18;;;;;;;4.00;1.85;;;11.80;99.90;;;;;;5040010;28;20490;-84
2023/05/12 04:46:44;;;;;;;3.60;2.08;;;11.80;99.90;;;;;;5039917;28;20041;-84
2023/05/12 04:49:10;;;;;;;2.80;2.50;;;11.80;99.90;;;;;;5038651;28;20176;-84
2023/05/12 04:51:41;;;;;;;2.95;2.40;;;11.80;99.90;;;;;;5039238;28;20045;-83
2023/05/12 04:54:09;;;;;;;5.47;3.83;;;12.00;99.90;;;;;;5037772;28;20408;-84
2023/05/12 04:56:34;;;;;;;1.40;1.25;;;11.90;99.90;;;;;;5055952;28;20068;-85
2023/05/12 04:59:00;;;;;;;2.88;2.05;;;11.90;99.90;;;;;;5058664;28;20052;-85
2023/05/12 05:01:26;;;;;;;4.40;3.35;;;12.40;99.90;;;;;;5057941;28;20104;-84
2023/05/12 05:03:51;;;;;;;3.60;1.83;;;11.90;99.90;;;;;;5058071;28;20052;-84
2023/05/12 05:06:17;;;;;;;3.63;2.08;;;12.00;99.90;;;;;;5040838;28;20076;-84
2023/05/12 05:08:43;;;;;;;3.92;2.45;;;11.90;99.90;;;;;;5038592;28;20211;-84
2023/05/12 05:11:08;;;;;;;4.35;3.08;;;11.90;99.90;;;;;;5037328;28;20128;-85
2023/05/12 05:13:34;;;;;;;13.82;3.40;;;11.90;99.90;;;;;;5038718;28;20045;-85
2023/05/12 05:16:00;;;;;;;5.03;2.17;;;12.00;99.90;;;;;;5053782;28;20049;-85
2023/05/12 05:18:26;;;;;;;6.00;1.50;;;12.40;99.90;;;;;;5057510;28;20050;-85
2023/05/12 05:20:54;;;;;;;1.75;1.50;;;13.20;99.90;;;;;;5057033;28;20049;-84
2023/05/12 05:23:20;;;;;;;3.97;2.00;;;11.90;99.90;;;;;;5040289;28;20052;-85
2023/05/12 05:25:45;;;;;;;2.90;1.75;;;11.90;99.90;;;;;;5046334;28;20049;-85
2023/05/12 05:28:11;;;;;;;2.17;1.85;;;12.00;99.90;;;;;;5041144;28;20056;-85
2023/05/12 05:30:37;;;;;;;4.68;2.10;;;12.00;99.90;;;;;;5038685;28;20064;-84
2023/05/12 05:33:02;;;;;;;2.22;1.83;;;12.90;99.90;;;;;;5053448;28;20396;-84
2023/05/12 05:35:29;;;;;;;3.03;2.38;;;12.00;99.90;;;;;;5039582;28;20478;-84
2023/05/12 05:37:55;;;;;;;17.60;2.00;;;12.10;99.90;;;;;;5031152;28;20049;-86
2023/05/12 05:40:22;;;;;;;2.15;1.88;;;12.10;99.90;;;;;;5032234;28;20045;-85
2023/05/12 05:42:47;;;;;;;2.05;1.85;;;12.20;99.90;;;;;;5032734;28;20052;-85
2023/05/12 05:45:13;;;;;;;2.05;1.85;;;12.40;99.90;;;;;;5031628;28;20124;-85
2023/05/12 05:47:39;;;;;;;1.83;1.65;;;12.20;99.90;;;;;;5031376;28;20068;-84
2023/05/12 05:50:05;;;;;;;3.85;2.15;;;12.30;99.90;;;;;;5031385;28;20072;-84
2023/05/12 05:52:31;;;;;;;3.20;2.30;;;12.30;99.90;;;;;;5032756;28;20085;-84
2023/05/12 05:54:57;;;;;;;9.88;3.50;;;12.30;99.90;;;;;;5031175;28;20744;-86
2023/05/12 05:57:22;;;;;;;2.15;1.75;;;12.30;99.90;;;;;;5032530;28;20053;-85
2023/05/12 05:59:48;;;;;;;3.67;2.08;;;12.40;99.90;;;;;;5035891;28;20041;-84
2023/05/12 06:02:14;;;;;;;3.65;2.15;;;13.40;99.90;;;;;;5033251;28;20041;-85
2023/05/12 06:04:39;;;;;;;3.28;2.10;;;12.40;99.90;;;;;;5033882;28;20049;-84
2023/05/12 06:07:05;;;;;;;3.70;2.72;;;12.50;99.90;;;;;;5033749;28;20526;-85
2023/05/12 06:09:31;;;;;;;3.47;2.78;;;12.60;99.90;;;;;;5032757;28;20056;-84
2023/05/12 06:11:57;;;;;;;6.15;3.17;;;12.60;99.90;;;;;;5032349;28;20513;-84
2023/05/12 06:14:22;;;;;;;3.08;2.20;;;12.90;99.90;;;;;;5031686;28;20137;-84
2023/05/12 06:16:48;;;;;;;3.60;2.40;;;12.70;99.90;;;;;;5032091;28;20123;-84
2023/05/12 06:19:14;;;;;;;1.90;1.63;;;12.80;99.90;;;;;;5031521;28;20042;-85
2023/05/12 06:21:40;;;;;;;3.53;2.47;;;12.70;99.90;;;;;;5033255;28;20053;-85
2023/05/12 06:24:06;;;;;;;4.45;2.65;;;13.00;99.90;;;;;;5033687;28;20455;-84
2023/05/12 06:26:31;;;;;;;3.17;2.05;;;12.80;99.90;;;;;;5032820;28;20100;-84
2023/05/12 06:28:57;;;;;;;3.40;2.90;;;12.70;99.90;;;;;;5033288;28;20173;-84
2023/05/12 06:31:22;;;;;;;1.73;1.52;;;12.70;99.90;;;;;;5033882;28;20045;-84
2023/05/12 06:33:49;;;;;;;2.17;1.83;;;12.70;99.90;;;;;;5033427;28;20046;-84
2023/05/12 06:36:14;;;;;;;4.22;3.83;;;12.70;99.90;;;;;;5033661;28;20503;-84
2023/05/12 06:38:40;;;;;;;4.75;2.33;;;13.80;99.90;;;;;;5035604;28;20049;-84
2023/05/12 06:41:05;;;;;;;3.05;2.10;;;13.40;99.90;;;;;;5038756;28;20416;-85
2023/05/12 06:43:31;;;;;;;7.00;3.50;;;12.80;99.90;;;;;;5036744;28;20144;-84
2023/05/12 06:45:57;;;;;;;3.88;2.30;;;12.70;99.90;;;;;;5036486;28;20544;-84
2023/05/12 06:48:23;;;;;;;5.20;3.00;;;12.70;99.90;;;;;;5037622;28;20057;-84
2023/05/12 06:50:48;;;;;;;3.38;1.33;;;13.10;99.90;;;;;;5038776;28;20045;-85
2023/05/12 06:53:14;;;;;;;3.97;3.58;;;12.80;99.90;;;;;;5038158;28;20046;-84
2023/05/12 06:55:42;;;;;;;2.33;1.75;;;12.80;99.90;;;;;;5037429;28;20053;-84
2023/05/12 06:58:07;;;;;;;5.95;3.50;;;12.80;99.90;;;;;;5052601;28;20044;-85
2023/05/12 07:00:33;;;;;;;3.38;2.05;;;12.80;99.90;;;;;;5057504;28;20029;-84
2023/05/12 07:02:59;;;;;;;5.35;2.30;;;13.70;99.90;;;;;;5054952;28;20117;-84
2023/05/12 07:05:24;;;;;;;5.30;3.40;;;13.10;99.90;;;;;;5051947;28;20136;-85
2023/05/12 07:07:50;;;;;;;1.77;1.52;;;12.80;99.90;;;;;;5052908;28;20096;-84
2023/05/12 07:10:16;;;;;;;2.22;1.67;;;12.90;99.90;;;;;;5036935;28;20038;-84
2023/05/12 07:12:42;;;;;;;11.75;1.92;;;12.90;99.90;;;;;;5054368;28;20029;-85
2023/05/12 07:15:08;;;;;;;2.55;2.00;;;13.00;99.90;;;;;;5054377;28;20107;-84
2023/05/12 07:17:34;;;;;;;1.48;1.33;;;13.10;99.90;;;;;;5053513;28;20108;-84
2023/05/12 07:19:59;;;;;;;3.72;2.67;;;13.40;99.90;;;;;;5052319;28;20033;-84
2023/05/12 07:22:25;;;;;;;3.53;2.42;;;13.30;99.90;;;;;;5052925;28;20041;-83
2023/05/12 07:24:51;;;;;;;2.20;1.65;;;13.50;99.90;;;;;;5040717;28;20105;-84
2023/05/12 07:27:17;;;;;;;3.20;1.88;;;14.40;99.90;;;;;;5044680;28;20056;-84
2023/05/12 07:29:42;;;;;;;4.03;3.40;;;13.80;99.90;;;;;;5040772;28;20053;-85
2023/05/12 07:32:08;;;;;;;3.08;2.65;;;14.40;99.90;;;;;;5034994;28;20116;-84
2023/05/12 07:34:33;;;;;;;4.07;3.70;;;14.10;99.90;;;;;;5033951;28;20071;-85
2023/05/12 07:37:02;;;;;;;7.43;4.05;;;14.40;99.90;;;;;;5034628;28;20121;-85
2023/05/12 07:39:31;;;;;;;4.10;3.65;;;14.50;99.90;;;;;;5035962;28;20098;-84
2023/05/12 07:41:57;;;;;;;5.75;2.75;;;14.90;99.90;;;;;;5033986;28;20147;-85
2023/05/12 07:44:23;;;;;;;3.28;2.97;;;16.50;99.90;;;;;;5033385;28;20049;-84
2023/05/12 07:46:48;;;;;;;3.17;2.45;;;15.60;99.90;;;;;;5031634;28;20072;-84
2023/05/12 07:49:14;;;;;;;2.47;2.28;;;16.00;99.90;;;;;;5032053;28;20342;-84
2023/05/12 07:51:40;;;;;;;1.60;1.42;;;16.20;99.90;;;;;;5032922;28;20045;-84
2023/05/12 07:54:06;;;;;;;2.17;1.98;;;16.50;99.90;;;;;;5032499;28;20052;-84
2023/05/12 07:56:32;;;;;;;3.20;2.83;;;16.50;99.90;;;;;;5032041;28;20488;-84
2023/05/12 07:58:58;;;;;;;1.40;1.27;;;16.30;99.90;;;;;;5030556;28;20042;-85
2023/05/12 08:01:23;;;;;;;2.38;2.05;;;16.30;1.00;;;;;;5032131;28;20038;-85
2023/05/12 08:03:52;;;;;;;9.77;4.40;;;16.40;99.90;;;;;;5032032;28;20606;-83
2023/05/12 08:06:17;;;;;;;3.83;2.30;;;16.30;99.90;;;;;;5034677;28;20045;-84
2023/05/12 08:08:43;;;;;;;2.10;1.77;;;16.80;99.90;;;;;;5035068;28;20076;-83
2023/05/12 08:11:10;;;;;;;6.25;3.60;;;17.20;99.90;;;;;;5034311;28;20112;-85
2023/05/12 08:13:36;;;;;;;3.95;2.30;;;16.60;99.90;;;;;;5035348;28;20041;-84
2023/05/12 08:16:02;;;;;;;6.82;4.00;;;17.50;99.90;;;;;;5033213;28;20049;-85
2023/05/12 08:18:28;;;;;;;3.45;2.30;;;17.00;99.90;;;;;;5033774;28;20124;-84
2023/05/12 08:20:54;;;;;;;3.47;1.80;;;17.00;99.90;;;;;;5033423;28;20447;-84
2023/05/12 08:23:20;;;;;;;9.80;4.43;;;17.30;1.00;;;;;;5032896;28;20134;-84
2023/05/12 08:25:47;;;;;;;3.03;2.75;;;18.40;1.00;;;;;;5032704;28;20052;-84
2023/05/12 08:28:13;;;;;;;5.05;2.80;;;17.60;99.90;;;;;;5031294;28;20049;-84
2023/05/12 08:30:40;;;;;;;3.10;2.15;;;17.90;33.40;;;;;;5032331;28;20060;-84
2023/05/12 08:33:06;;;;;;;3.85;2.22;;;18.30;1.00;;;;;;5031586;28;20050;-84
2023/05/12 08:35:31;;;;;;;4.95;2.88;;;18.60;99.90;;;;;;5029688;28;20408;-84
2023/05/12 08:37:58;;;;;;;5.00;2.67;;;19.00;1.00;;;;;;5030557;28;20259;-85
2023/05/12 08:40:25;;;;;;;4.20;2.55;;;19.20;99.90;;;;;;5030704;28;20083;-84
2023/05/12 08:43:06;;;;;;;6.72;3.33;;;19.50;99.90;;;;;;5030054;28;20045;-85
2023/05/12 08:45:36;;;;;;;2.53;2.33;;;19.80;99.90;;;;;;5029888;28;20045;-84
2023/05/12 08:48:02;;;;;;;2.45;2.00;;;20.20;1.00;;;;;;5028847;28;20385;-84
2023/05/12 08:50:31;;;;;;;4.40;2.13;;;20.30;1.00;;;;;;5029347;28;20046;-85
2023/05/12 08:52:57;;;;;;;2.38;2.15;;;20.50;1.00;;;;;;5029027;28;20052;-85
2023/05/12 08:55:25;;;;;;;5.38;3.03;;;20.40;99.90;;;;;;5029097;28;20841;-83
2023/05/12 08:57:51;;;;;;;5.43;2.47;;;19.90;99.90;;;;;;5028855;28;20106;-84
2023/05/12 09:00:19;;;;;;;1.08;1.02;;;20.00;99.90;;;;;;5035272;28;20029;-85
2023/05/12 09:02:46;;;;;;;3.13;2.30;;;20.70;1.00;;;;;;5048772;28;20041;-83
2023/05/12 09:05:11;;;;;;;3.08;2.17;;;21.10;99.90;;;;;;5050110;28;20026;-84
2023/05/12 09:07:43;;;;;;;2.88;1.70;;;21.70;99.90;;;;;;5049475;28;20026;-85
2023/05/12 09:10:18;;;;;;;3.28;2.30;;;21.80;99.90;;;;;;5049140;28;20037;-84
2023/05/12 09:12:46;;;;;;;1.40;1.30;;;21.90;99.90;;;;;;5049917;28;20041;-84
2023/05/12 09:15:23;;;;;;;3.28;1.73;;;21.70;99.90;;;;;;5048678;28;20049;-84
2023/05/12 09:17:49;;;;;;;3.88;2.63;;;21.90;99.90;;;;;;5044242;28;20041;-85
2023/05/12 09:20:16;;;;;;;2.47;1.55;;;22.30;99.90;;;;;;5047699;28;20042;-85
2023/05/12 09:22:42;;;;;;;5.43;1.70;;;22.90;99.90;;;;;;5033931;28;20052;-85
2023/05/12 09:25:20;;;;;;;5.32;1.65;;;23.00;99.90;;;;;;5026044;28;20420;-85
2023/05/12 09:27:48;;;;;;;3.38;2.38;;;23.00;99.90;;;;;;5038249;28;20044;-84
2023/05/12 09:30:14;;;;;;;5.70;2.47;;;23.50;99.90;;;;;;5043184;28;20080;-84
2023/05/12 09:32:40;;;;;;;1.38;1.25;;;23.60;99.90;;;;;;5042752;28;20045;-84
2023/05/12 09:35:10;;;;;;;2.38;1.95;;;23.80;99.90;;;;;;5041721;28;20380;-84
2023/05/12 09:37:36;;;;;;;4.53;2.78;;;23.50;99.90;;;;;;5041819;28;20124;-84
2023/05/12 09:40:03;;;;;;;5.72;2.95;;;23.30;98.50;;;;;;5041747;28;20479;-84
2023/05/12 09:42:31;;;;;;;3.28;2.03;;;22.50;99.90;;;;;;5041342;28;20044;-85
2023/05/12 09:45:10;;;;;;;4.47;2.13;;;22.80;99.90;;;;;;5040743;28;20053;-84
2023/05/12 09:47:39;;;;;;;3.67;2.33;;;22.80;99.90;;;;;;5040314;28;20575;-84
2023/05/12 09:50:07;;;;;;;1.77;1.67;;;22.70;99.90;;;;;;5043659;28;20068;-85
2023/05/12 09:52:37;;;;;;;4.28;2.47;;;22.70;99.90;;;;;;5043074;28;20064;-85
2023/05/12 09:55:10;;;;;;;2.55;1.77;;;22.60;99.90;;;;;;5043012;28;20280;-84
2023/05/12 09:57:44;;;;;;;3.40;2.13;;;22.30;92.40;;;;;;5042345;28;20119;-85
2023/05/12 10:00:16;;;;;;;3.80;2.35;;;22.50;99.90;;;;;;5042282;28;20053;-83
2023/05/12 10:02:42;;;;;;;2.05;1.55;;;23.20;99.90;;;;;;5041935;28;20420;-85
2023/05/12 10:05:19;;;;;;;2.92;2.10;;;23.60;99.90;;;;;;5042016;28;20127;-85
2023/05/12 10:07:50;;;;;;;3.00;1.85;;;23.80;99.90;;;;;;5041354;28;20048;-85
2023/05/12 10:10:18;;;;;;;3.30;2.20;;;23.50;99.90;;;;;;5042137;28;20060;-86
2023/05/12 10:12:44;;;;;;;4.45;2.85;;;23.30;99.90;;;;;;5043245;28;20049;-85
2023/05/12 10:15:12;;;;;;;2.70;1.85;;;23.10;99.90;;;;;;5042952;28;20048;-85
2023/05/12 10:17:40;;;;;;;7.20;1.85;;;23.00;99.90;;;;;;5043412;28;20092;-85
2023/05/12 10:20:07;;;;;;;1.52;1.42;;;22.70;99.90;;;;;;5043920;28;20139;-85
2023/05/12 10:22:33;;;;;;;3.00;1.83;;;22.60;99.90;;;;;;5043485;28;20067;-85
2023/05/12 10:25:03;;;;;;;1.70;1.40;;;22.70;99.90;;;;;;5043720;28;20037;-85
2023/05/12 10:27:31;;;;;;;2.10;1.73;;;22.30;99.90;;;;;;5043797;28;20444;-85
2023/05/12 10:29:57;;;;;;;2.70;1.42;;;22.30;99.90;;;;;;5044277;28;20049;-85
2023/05/12 10:32:23;;;;;;;2.45;1.05;;;22.30;99.90;;;;;;5043903;28;20407;-84
2023/05/12 10:34:49;;;;;;;4.28;1.98;;;22.30;99.90;;;;;;5043951;28;20045;-85
2023/05/12 10:37:15;;;;;;;1.50;1.35;;;22.40;99.90;;;;;;5053003;28;20053;-85
2023/05/12 10:39:49;;;;;;;6.85;2.45;;;22.40;99.90;;;;;;5055986;28;20418;-85
2023/05/12 10:42:25;;;;;;;2.75;1.48;;;22.50;99.90;;;;;;5057094;28;20037;-85
2023/05/12 10:44:52;;;;;;;1.40;0.90;;;22.70;99.90;;;;;;5044629;28;20092;-85
2023/05/12 10:47:25;;;;;;;2.28;1.77;;;22.80;99.90;;;;;;5044730;28;20060;-85
2023/05/12 10:49:57;;;;;;;12.88;2.60;;;22.90;99.90;;;;;;5046042;28;20396;-85
2023/05/12 10:52:23;;;;;;;2.45;1.60;;;23.00;61.20;;;;;;5045550;28;20052;-85
2023/05/12 10:54:48;;;;;;;1.17;1.02;;;23.30;89.70;;;;;;5059285;28;20558;-85
2023/05/12 10:57:19;;;;;;;1.33;1.02;;;23.50;97.70;;;;;;5059645;28;20049;-85
2023/05/12 10:59:56;;;;;;;2.33;1.65;;;23.70;73.30;;;;;;5047542;28;20044;-84
2023/05/12 11:02:33;;;;;;;1.17;1.02;;;23.60;1.00;;;;;;5065580;28;20049;-85
2023/05/12 11:05:02;;;;;;;2.88;2.10;;;24.00;99.90;;;;;;5066878;28;20041;-85
2023/05/12 11:07:31;;;;;;;2.03;1.80;;;23.80;1.00;;;;;;5066026;28;20053;-84
2023/05/12 11:09:58;;;;;;;1.50;1.40;;;23.30;1.00;;;;;;5062228;28;20052;-84
2023/05/12 11:12:28;;;;;;;4.75;1.45;;;23.60;1.00;;;;;;5046623;28;20045;-85
2023/05/12 11:14:54;;;;;;;0.90;0.82;;;23.90;1.00;;;;;;5045053;28;20041;-85
2023/05/12 11:17:20;;;;;;;1.17;0.95;;;24.10;1.00;;;;;;5043838;28;20175;-84
2023/05/12 11:19:48;;;;;;;1.83;1.35;;;24.20;1.00;;;;;;5043626;28;20127;-86
2023/05/12 11:22:18;;;;;;;3.72;1.27;;;24.20;1.00;;;;;;5042693;28;21087;-84
2023/05/12 11:24:43;;;;;;;2.50;1.25;;;25.20;1.00;;;;;;5042125;28;20098;-84
2023/05/12 11:27:16;;;;;;;1.42;1.00;;;25.40;1.00;;;;;;5047952;28;20123;-85
2023/05/12 11:29:42;;;;;;;0.65;0.60;;;24.80;99.90;;;;;;5046532;28;20057;-84
2023/05/12 11:32:10;;;;;;;1.15;0.68;;;24.50;99.90;;;;;;5048412;28;20049;-84
2023/05/12 11:34:36;;;;;;;1.45;0.80;;;24.60;99.90;;;;;;5047757;28;20130;-84
2023/05/12 11:37:03;;;;;;;1.75;0.90;;;25.30;1.00;;;;;;5047747;28;20077;-84
2023/05/12 11:39:31;;;;;;;0.32;0.32;;;25.30;1.00;;;;;;5048727;28;20041;-84
2023/05/12 11:42:04;;;;;;;4.20;1.17;;;25.50;99.90;;;;;;5046873;28;20139;-85
2023/05/12 11:44:31;;;;;;;1.70;0.90;;;26.00;1.00;;;;;;5047515;28;20055;-84
2023/05/12 11:47:10;;;;;;;0.45;0.40;;;26.50;99.90;;;;;;5047397;28;20041;-85
2023/05/12 11:49:46;;;;;;;1.63;0.95;;;27.20;99.90;;;;;;5048497;28;20059;-85
2023/05/12 11:52:13;;;;;;;1.75;1.15;;;27.30;99.90;;;;;;5046995;28;20048;-84
2023/05/12 11:54:38;;;;;;;0.88;0.65;;;27.00;99.90;;;;;;5046619;28;20411;-85
2023/05/12 11:57:04;;;;;;;1.40;1.15;;;27.20;99.90;;;;;;5046553;28;20084;-84
2023/05/12 11:59:32;;;;;;;1.83;1.20;;;27.20;99.90;;;;;;5048551;28;20738;-83
2023/05/12 12:02:01;;;;;;;1.10;0.88;;;27.00;99.90;;;;;;5047987;28;20045;-84
2023/05/12 12:04:39;;;;;;;2.13;1.27;;;27.00;99.90;;;;;;5048371;28;20111;-83
2023/05/12 12:07:06;;;;;;;0.20;0.20;;;27.50;99.90;;;;;;5047288;28;20720;-84
2023/05/12 12:09:32;;;;;;;0.98;0.38;;;27.90;99.90;;;;;;5047348;28;20052;-84
2023/05/12 12:12:00;;;;;;;0.52;0.45;;;28.20;99.90;;;;;;5048190;28;20045;-84
2023/05/12 12:14:26;;;;;;;0.95;0.65;;;28.10;99.90;;;;;;5048583;28;20144;-84
2023/05/12 12:16:52;;;;;;;0.82;0.68;;;28.20;99.90;;;;;;5046577;28;20507;-85
2023/05/12 12:19:17;;;;;;;3.15;1.30;;;28.60;99.90;;;;;;5047397;28;20052;-84
2023/05/12 12:21:43;;;;;;;0.45;0.35;;;28.70;99.90;;;;;;5046708;28;20383;-85
2023/05/12 12:24:09;;;;;;;0.43;0.30;;;28.40;99.90;;;;;;5049390;28;20641;-84
2023/05/12 12:26:35;;;;;;;0.40;0.32;;;29.00;99.90;;;;;;5047615;28;20105;-85
2023/05/12 12:29:00;;;;;;;0.32;0.30;;;28.80;99.90;;;;;;5047526;28;20648;-85
2023/05/12 12:31:26;;;;;;;0.70;0.47;;;29.60;99.90;;;;;;5047080;28;20040;-85
2023/05/12 12:33:52;;;;;;;0.32;0.30;;;29.40;99.90;;;;;;5046953;28;20063;-85
2023/05/12 12:36:17;;;;;;;0.10;0.10;;;28.50;99.90;;;;;;5046805;28;20049;-86
2023/05/12 12:38:43;;;;;;;0.47;0.43;;;28.30;99.90;;;;;;5047787;28;20041;-84
2023/05/12 12:41:09;;;;;;;0.70;0.40;;;27.40;99.90;;;;;;5047652;28;20037;-83
2023/05/12 12:43:35;;;;;;;2.45;1.38;;;26.60;99.90;;;;;;5048672;28;20048;-83
2023/05/12 12:46:00;;;;;;;0.20;0.20;;;26.10;99.90;;;;;;5049036;28;20049;-84